Ohio City, Colorado
Current Conditions -  °F | °C
As of 4:43 AM on Tuesday 21 Oct 2014 (Local Time) from KMYP Reporting Station
Clear Clear  
Wind Chill: 21°   Ceiling: Unl
Heat Index: 32°   Visibility: 10mi
Dew Point: 30°   Wind: 17mph
Humidity: 93%   Direction: 220°SW
Pressure: 30.5"   Gusts: NA
Location:  38.58°N, 106.58°W
Report Text: KMYP 211043Z AUTO 22015KT 10SM CLR 00/M01 A3050 RMK AO2
Loading
Personal Weather Stations






























Interactive Weather Map
Tropical Storm Tracking
New forecast layout! Learn more

10-Day Weather Forecast

Advertisements
Track Severe Weather on mobile